createdAt,value
2023-01-29T00:01:58.102Z,55.19
2023-01-29T00:05:13.038Z,55.43
2023-01-29T00:08:23.923Z,55.85
2023-01-29T00:11:27.025Z,56.09
2023-01-29T00:14:29.990Z,56.36
2023-01-29T00:17:33.755Z,55.31
2023-01-29T00:20:37.051Z,54.94
2023-01-29T00:23:40.663Z,54.56
2023-01-29T00:26:43.917Z,54.23
2023-01-29T00:30:08.042Z,53.71
2023-01-29T00:33:13.979Z,53.52
2023-01-29T00:36:18.966Z,53.41
2023-01-29T00:39:31.451Z,53.36
2023-01-29T00:43:00.962Z,53.31
2023-01-29T00:46:07.091Z,53.35
2023-01-29T00:52:32.394Z,53.17
2023-01-29T00:55:36.358Z,52.65
2023-01-29T00:58:40.638Z,52.77
2023-01-29T01:02:02.975Z,52.61
2023-01-29T01:05:08.269Z,52.47
2023-01-29T01:08:30.933Z,51.71
2023-01-29T01:11:34.813Z,51.50
2023-01-29T01:14:38.910Z,51.35
2023-01-29T01:17:42.564Z,51.38
2023-01-29T01:20:46.535Z,50.96
2023-01-29T01:23:52.436Z,50.46
2023-01-29T01:26:56.052Z,50.08
2023-01-29T01:29:59.968Z,49.78
2023-01-29T01:33:03.520Z,49.60
2023-01-29T01:36:10.564Z,49.54
2023-01-29T01:39:14.194Z,49.04
2023-01-29T01:42:18.545Z,48.99
2023-01-29T01:45:36.566Z,48.73
2023-01-29T01:48:40.854Z,48.18
2023-01-29T01:51:48.732Z,49.00
2023-01-29T01:54:52.781Z,49.39
2023-01-29T01:58:07.951Z,49.86
2023-01-29T02:01:13.676Z,49.75
2023-01-29T02:04:39.568Z,49.80
2023-01-29T02:08:04.754Z,49.81
2023-01-29T02:11:08.740Z,49.60
2023-01-29T02:17:33.734Z,50.31
2023-01-29T02:20:38.028Z,50.54
2023-01-29T02:24:13.539Z,50.86
2023-01-29T02:27:37.647Z,51.13
2023-01-29T02:31:09.989Z,51.31
2023-01-29T02:34:28.680Z,51.08
2023-01-29T02:37:43.184Z,50.95
2023-01-29T02:40:55.729Z,50.84
2023-01-29T02:44:16.844Z,50.65
2023-01-29T02:47:32.989Z,50.60
2023-01-29T02:50:55.630Z,50.75
2023-01-29T02:54:17.709Z,51.06
2023-01-29T02:57:29.612Z,50.67
2023-01-29T03:00:39.352Z,50.70
2023-01-29T03:03:46.574Z,51.35
2023-01-29T03:06:55.246Z,51.14
2023-01-29T03:09:59.951Z,50.75
2023-01-29T03:13:09.707Z,50.35
2023-01-29T03:16:52.544Z,49.77
2023-01-29T03:19:57.821Z,49.40
2023-01-29T03:23:15.120Z,49.14
2023-01-29T03:26:40.832Z,48.61
2023-01-29T03:30:07.349Z,48.68
2023-01-29T03:33:47.601Z,48.33
2023-01-29T03:37:23.129Z,48.81
2023-01-29T03:40:30.029Z,48.07
2023-01-29T03:43:54.636Z,47.75
2023-01-29T03:47:14.337Z,47.98
2023-01-29T03:50:18.151Z,47.70
2023-01-29T03:53:35.981Z,47.87
2023-01-29T03:57:12.026Z,48.23
2023-01-29T04:00:23.715Z,48.13
2023-01-29T04:03:58.072Z,48.75
2023-01-29T04:07:10.022Z,48.42
2023-01-29T04:10:18.800Z,48.46
2023-01-29T04:13:24.442Z,48.42
2023-01-29T04:16:39.712Z,48.53
2023-01-29T04:19:57.650Z,48.20
2023-01-29T04:23:01.382Z,47.64
2023-01-29T04:26:30.062Z,47.10
2023-01-29T04:29:54.445Z,46.98
2023-01-29T04:33:17.514Z,46.06
2023-01-29T04:37:00.753Z,45.45
2023-01-29T04:40:09.710Z,45.54
2023-01-29T04:43:45.444Z,45.11
2023-01-29T04:47:25.267Z,44.94
2023-01-29T04:50:40.865Z,44.29
2023-01-29T04:53:57.068Z,44.20
2023-01-29T04:57:20.049Z,43.52
2023-01-29T05:00:26.568Z,43.13
2023-01-29T05:03:33.352Z,42.38
2023-01-29T05:06:38.938Z,41.65
2023-01-29T05:09:46.051Z,40.08
2023-01-29T05:12:55.993Z,39.92
2023-01-29T05:16:16.944Z,40.10
2023-01-29T05:19:20.514Z,40.66
2023-01-29T05:22:24.968Z,39.97
2023-01-29T05:25:31.511Z,38.84
2023-01-29T05:28:34.699Z,38.71
2023-01-29T05:31:37.534Z,40.31
2023-01-29T05:34:40.534Z,40.29
2023-01-29T05:37:44.199Z,40.35
2023-01-29T05:40:47.625Z,41.35
2023-01-29T05:43:50.584Z,40.32
2023-01-29T05:46:54.201Z,39.56
2023-01-29T05:49:58.197Z,39.56
2023-01-29T05:53:02.648Z,39.13
2023-01-29T05:56:06.653Z,39.65
2023-01-29T05:59:09.962Z,38.71
2023-01-29T06:02:13.256Z,38.31
2023-01-29T06:05:16.968Z,37.53
2023-01-29T06:08:21.032Z,37.62
2023-01-29T06:11:25.200Z,37.44
2023-01-29T06:14:29.030Z,36.76
2023-01-29T06:17:32.005Z,37.64
2023-01-29T06:20:35.282Z,36.68
2023-01-29T06:23:38.367Z,36.25
2023-01-29T06:26:41.332Z,36.39
2023-01-29T06:29:44.162Z,36.30
2023-01-29T06:32:47.476Z,36.81
2023-01-29T06:35:50.289Z,36.98
2023-01-29T06:38:54.229Z,36.26
2023-01-29T06:41:57.458Z,37.07
2023-01-29T06:45:00.477Z,36.69
2023-01-29T06:48:03.426Z,36.54
2023-01-29T06:51:08.765Z,36.90
2023-01-29T06:54:11.968Z,36.46
2023-01-29T06:57:15.252Z,36.56
2023-01-29T07:00:20.137Z,35.96
2023-01-29T07:03:23.795Z,36.26
2023-01-29T07:06:30.914Z,35.53
2023-01-29T07:09:34.958Z,35.53
2023-01-29T07:12:38.106Z,35.63
2023-01-29T07:15:41.691Z,35.38
2023-01-29T07:18:44.625Z,35.06
2023-01-29T07:21:48.642Z,35.11
2023-01-29T07:24:52.101Z,34.79
2023-01-29T07:27:56.068Z,33.89
2023-01-29T07:31:00.285Z,34.21
2023-01-29T07:34:04.551Z,34.53
2023-01-29T07:37:08.301Z,34.70
2023-01-29T07:40:12.776Z,34.77
2023-01-29T07:43:17.317Z,35.07
2023-01-29T07:46:21.209Z,35.14
2023-01-29T07:49:24.821Z,35.03
2023-01-29T07:52:29.947Z,34.87
2023-01-29T07:55:35.048Z,35.15
2023-01-29T07:58:38.351Z,35.58
2023-01-29T08:01:42.314Z,35.98
2023-01-29T08:04:45.901Z,36.03
2023-01-29T08:08:06.116Z,36.15
2023-01-29T08:11:10.413Z,35.65
2023-01-29T08:14:14.424Z,35.86
2023-01-29T08:17:17.872Z,36.38
2023-01-29T08:20:22.355Z,37.11
2023-01-29T08:23:25.571Z,37.35
2023-01-29T08:26:29.724Z,37.33
2023-01-29T08:29:32.971Z,36.86
2023-01-29T08:32:37.235Z,36.69
2023-01-29T08:35:41.783Z,36.86
2023-01-29T08:38:46.113Z,36.83
2023-01-29T08:41:49.692Z,36.97
2023-01-29T08:44:53.267Z,37.39
2023-01-29T08:47:56.999Z,37.49
2023-01-29T08:51:03.167Z,37.74
2023-01-29T08:54:06.807Z,38.10
2023-01-29T08:57:10.471Z,38.72
2023-01-29T09:00:15.936Z,39.50
2023-01-29T09:03:20.074Z,40.21
2023-01-29T09:06:23.186Z,41.36
2023-01-29T09:09:27.081Z,41.88
2023-01-29T09:12:31.264Z,42.52
2023-01-29T09:15:34.924Z,42.86
2023-01-29T09:18:38.915Z,43.44
2023-01-29T09:21:42.497Z,43.50
2023-01-29T09:24:46.372Z,43.99
2023-01-29T09:27:49.617Z,44.19
2023-01-29T09:30:53.576Z,44.56
2023-01-29T09:33:57.272Z,44.66
2023-01-29T09:37:00.914Z,44.94
2023-01-29T09:40:04.651Z,45.60
2023-01-29T09:43:35.587Z,45.53
2023-01-29T09:46:43.830Z,46.07
2023-01-29T09:50:28.974Z,46.18
2023-01-29T09:53:43.981Z,46.37
2023-01-29T09:56:49.163Z,46.71
2023-01-29T09:59:55.636Z,46.82
2023-01-29T10:03:32.229Z,47.03
2023-01-29T10:06:50.657Z,47.05
2023-01-29T10:10:36.897Z,47.70
2023-01-29T10:14:16.214Z,48.06
2023-01-29T10:17:29.312Z,48.52
2023-01-29T10:21:05.673Z,48.39
2023-01-29T10:24:38.815Z,48.23
2023-01-29T10:27:51.950Z,48.33
2023-01-29T10:31:10.338Z,48.53
2023-01-29T10:34:24.656Z,48.32
2023-01-29T10:37:41.640Z,48.41
2023-01-29T10:40:57.132Z,48.37
2023-01-29T10:44:03.266Z,48.45
2023-01-29T10:47:53.157Z,48.33
2023-01-29T10:50:59.277Z,48.04
2023-01-29T10:54:14.727Z,47.82
2023-01-29T10:57:22.169Z,47.76
2023-01-29T11:00:31.663Z,48.04
2023-01-29T11:03:35.870Z,48.24
2023-01-29T11:06:39.498Z,48.41
2023-01-29T11:10:01.694Z,48.47
2023-01-29T11:13:06.339Z,48.53
2023-01-29T11:16:12.015Z,48.83
2023-01-29T11:19:16.791Z,49.03
2023-01-29T11:22:29.826Z,49.04
2023-01-29T11:25:33.416Z,48.96
2023-01-29T11:28:39.757Z,49.24
2023-01-29T11:31:43.696Z,49.94
2023-01-29T11:35:17.745Z,49.86
2023-01-29T11:38:29.344Z,49.94
2023-01-29T11:41:44.402Z,50.10
2023-01-29T11:44:47.848Z,50.61
2023-01-29T11:47:56.826Z,50.93
2023-01-29T11:51:01.910Z,50.96
2023-01-29T11:54:06.331Z,51.14
2023-01-29T11:57:26.978Z,50.98
2023-01-29T12:00:34.061Z,51.27
2023-01-29T12:03:47.483Z,50.17
2023-01-29T12:06:53.792Z,51.57
2023-01-29T12:09:59.637Z,50.58
2023-01-29T12:13:12.709Z,52.44
2023-01-29T12:16:49.649Z,53.14
2023-01-29T12:20:02.114Z,53.62
2023-01-29T12:23:25.118Z,54.56
2023-01-29T12:26:43.964Z,56.47
2023-01-29T12:29:59.358Z,53.42
2023-01-29T12:33:20.514Z,54.18
2023-01-29T12:36:34.558Z,55.02
2023-01-29T12:39:38.428Z,55.99
2023-01-29T12:42:47.869Z,55.65
2023-01-29T12:45:55.050Z,55.00
2023-01-29T12:49:04.028Z,54.47
2023-01-29T12:52:07.729Z,53.84
2023-01-29T12:55:18.427Z,53.76
2023-01-29T12:58:44.382Z,52.84
2023-01-29T13:01:57.744Z,55.15
2023-01-29T13:05:11.419Z,54.14
2023-01-29T13:08:40.583Z,55.58
2023-01-29T13:12:18.157Z,56.06
2023-01-29T13:15:44.950Z,56.45
2023-01-29T13:18:54.589Z,56.29
2023-01-29T13:22:02.210Z,57.62
2023-01-29T13:25:06.596Z,57.27
2023-01-29T13:28:26.562Z,57.56
2023-01-29T13:31:35.531Z,57.82
2023-01-29T13:34:46.735Z,57.89
2023-01-29T13:37:53.954Z,58.11
2023-01-29T13:41:03.064Z,58.30
2023-01-29T13:44:09.719Z,58.48
2023-01-29T13:47:24.602Z,58.70
2023-01-29T13:50:38.497Z,58.81
2023-01-29T13:53:43.813Z,58.81
2023-01-29T13:57:00.134Z,59.18
2023-01-29T14:00:04.054Z,59.12
2023-01-29T14:03:09.735Z,59.24
2023-01-29T14:06:38.911Z,59.45
2023-01-29T14:09:42.531Z,59.90
2023-01-29T14:12:47.249Z,60.05
2023-01-29T14:15:59.905Z,60.39
2023-01-29T14:19:05.937Z,60.27
2023-01-29T14:22:23.977Z,60.60
2023-01-29T14:25:36.093Z,60.36
2023-01-29T14:28:41.240Z,60.49
2023-01-29T14:31:53.796Z,60.52
2023-01-29T14:35:18.097Z,60.70
2023-01-29T14:38:27.150Z,60.20
2023-01-29T14:41:32.596Z,59.74
2023-01-29T14:44:45.247Z,60.39
2023-01-29T14:47:48.433Z,60.40
2023-01-29T14:50:53.980Z,60.79
2023-01-29T14:54:03.661Z,61.03
2023-01-29T14:57:13.212Z,61.28
2023-01-29T15:00:27.897Z,61.88
2023-01-29T15:03:46.345Z,61.64
2023-01-29T15:07:08.403Z,62.08
2023-01-29T15:10:23.491Z,61.66
2023-01-29T15:13:43.177Z,61.62
2023-01-29T15:17:23.821Z,61.25
2023-01-29T15:20:29.999Z,61.74
2023-01-29T15:23:35.249Z,61.84
2023-01-29T15:26:39.595Z,62.22
2023-01-29T15:29:44.939Z,62.73
2023-01-29T15:32:50.018Z,62.81
2023-01-29T15:36:07.304Z,62.82
2023-01-29T15:39:14.436Z,62.74
2023-01-29T15:42:22.387Z,63.22
2023-01-29T15:45:33.980Z,64.00
2023-01-29T15:48:41.591Z,64.02
2023-01-29T15:51:47.996Z,63.92
2023-01-29T15:54:52.198Z,63.60
2023-01-29T15:57:56.377Z,63.52
2023-01-29T16:01:01.338Z,63.39
2023-01-29T16:04:05.711Z,61.62
2023-01-29T16:07:08.807Z,60.72
2023-01-29T16:10:22.313Z,60.64
2023-01-29T16:13:29.812Z,60.46
2023-01-29T16:16:33.727Z,60.11
2023-01-29T16:19:39.806Z,59.92
2023-01-29T16:22:43.474Z,59.63
2023-01-29T16:25:47.277Z,60.61
2023-01-29T16:28:51.797Z,61.21
2023-01-29T16:32:01.446Z,60.74
2023-01-29T16:35:06.405Z,61.14
2023-01-29T16:38:32.119Z,61.51
2023-01-29T16:41:39.187Z,61.56
2023-01-29T16:44:47.201Z,61.57
2023-01-29T16:48:02.484Z,61.19
2023-01-29T16:51:29.280Z,60.29
2023-01-29T16:54:32.555Z,59.64
2023-01-29T16:57:35.544Z,60.02
2023-01-29T17:00:38.863Z,59.52
2023-01-29T17:03:43.264Z,59.33
2023-01-29T17:06:49.745Z,59.65
2023-01-29T17:09:59.911Z,60.81
2023-01-29T17:13:07.815Z,61.10
2023-01-29T17:16:25.094Z,61.74
2023-01-29T17:19:28.196Z,62.34
2023-01-29T17:22:31.761Z,62.73
2023-01-29T17:25:34.746Z,62.42
2023-01-29T17:28:37.983Z,61.05
2023-01-29T17:31:41.191Z,61.18
2023-01-29T17:34:44.903Z,61.98
2023-01-29T17:37:49.389Z,61.55
2023-01-29T17:40:56.507Z,61.41
2023-01-29T17:43:59.885Z,60.55
2023-01-29T17:47:03.777Z,61.08
2023-01-29T17:50:21.305Z,61.61
2023-01-29T17:53:26.519Z,63.43
2023-01-29T17:56:33.950Z,62.38
2023-01-29T17:59:37.145Z,60.24
2023-01-29T18:02:40.736Z,59.43
2023-01-29T18:05:49.176Z,60.41
2023-01-29T18:08:53.041Z,58.44
2023-01-29T18:11:56.199Z,59.49
2023-01-29T18:14:59.761Z,60.91
2023-01-29T18:18:03.357Z,59.88
2023-01-29T18:21:06.837Z,61.13
2023-01-29T18:24:10.186Z,60.52
2023-01-29T18:27:13.295Z,60.09
2023-01-29T18:30:17.148Z,60.27
2023-01-29T18:33:20.822Z,60.98
2023-01-29T18:36:25.068Z,59.63
2023-01-29T18:39:28.272Z,59.88
2023-01-29T18:42:34.187Z,60.49
2023-01-29T18:45:37.937Z,61.69
2023-01-29T18:48:42.761Z,61.77
2023-01-29T18:51:46.444Z,61.89
2023-01-29T18:54:50.762Z,60.34
2023-01-29T18:58:28.747Z,61.19
2023-01-29T19:01:18.912Z,61.67
2023-01-29T19:04:21.921Z,58.36
2023-01-29T19:07:25.695Z,58.44
2023-01-29T19:10:28.918Z,54.66
2023-01-29T19:13:33.495Z,53.05
2023-01-29T19:16:36.972Z,53.10
2023-01-29T19:19:40.322Z,53.87
2023-01-29T19:22:44.835Z,54.27
2023-01-29T19:25:48.196Z,56.60
2023-01-29T19:28:51.891Z,56.99
2023-01-29T19:31:55.181Z,57.87
2023-01-29T19:34:59.174Z,57.82
2023-01-29T19:38:03.311Z,56.98
2023-01-29T19:41:07.294Z,57.02
2023-01-29T19:44:12.430Z,57.16
2023-01-29T19:47:16.272Z,58.95
2023-01-29T19:50:19.963Z,58.64
2023-01-29T19:53:23.635Z,58.85
2023-01-29T19:56:26.880Z,57.10
2023-01-29T19:59:30.455Z,56.32
2023-01-29T20:02:34.464Z,55.94
2023-01-29T20:05:38.083Z,56.81
2023-01-29T20:08:41.170Z,57.32
2023-01-29T20:11:44.778Z,56.47
2023-01-29T20:14:49.823Z,55.67
2023-01-29T20:17:52.712Z,55.64
2023-01-29T20:20:56.830Z,56.26
2023-01-29T20:24:00.557Z,57.90
2023-01-29T20:27:04.230Z,59.49
2023-01-29T20:30:09.072Z,58.36
2023-01-29T20:33:13.344Z,56.94
2023-01-29T20:36:16.911Z,56.40
2023-01-29T20:39:20.184Z,56.49
2023-01-29T20:42:23.597Z,56.47
2023-01-29T20:45:27.609Z,57.18
2023-01-29T20:48:32.204Z,58.12
2023-01-29T20:51:35.668Z,56.60
2023-01-29T20:54:39.324Z,56.15
2023-01-29T20:57:43.729Z,56.26
2023-01-29T21:01:15.983Z,56.73
2023-01-29T21:04:19.732Z,57.46
2023-01-29T21:07:23.136Z,57.32
2023-01-29T21:10:25.990Z,61.24
2023-01-29T21:13:28.976Z,59.45
2023-01-29T21:16:32.715Z,57.65
2023-01-29T21:19:36.064Z,56.86
2023-01-29T21:22:39.488Z,56.46
2023-01-29T21:25:43.116Z,56.15
2023-01-29T21:28:47.074Z,58.26
2023-01-29T21:31:51.100Z,59.32
2023-01-29T21:34:54.969Z,57.84
2023-01-29T21:37:57.957Z,56.22
2023-01-29T21:41:05.895Z,55.38
2023-01-29T21:44:09.084Z,55.58
2023-01-29T21:47:15.582Z,55.75
2023-01-29T21:50:18.829Z,55.58
2023-01-29T21:53:23.226Z,55.76
2023-01-29T21:56:26.551Z,57.89
2023-01-29T21:59:30.154Z,58.50
2023-01-29T22:02:33.865Z,59.32
2023-01-29T22:05:36.910Z,61.17
2023-01-29T22:08:41.238Z,61.03
2023-01-29T22:11:44.417Z,55.91
2023-01-29T22:14:48.311Z,55.18
2023-01-29T22:17:52.343Z,56.37
2023-01-29T22:20:56.611Z,56.07
2023-01-29T22:23:59.525Z,56.95
2023-01-29T22:27:02.811Z,57.01
2023-01-29T22:30:07.140Z,57.29
2023-01-29T22:33:11.395Z,58.61
2023-01-29T22:36:14.644Z,57.20
2023-01-29T22:39:17.959Z,56.29
2023-01-29T22:42:21.288Z,55.10
2023-01-29T22:45:25.459Z,55.24
2023-01-29T22:48:29.145Z,55.50
2023-01-29T22:51:40.215Z,56.11
2023-01-29T22:54:44.457Z,54.79
2023-01-29T22:57:50.650Z,54.00
2023-01-29T23:00:53.524Z,53.25
2023-01-29T23:03:56.896Z,52.26
2023-01-29T23:06:59.837Z,52.00
2023-01-29T23:10:05.171Z,51.87
2023-01-29T23:13:09.124Z,52.12
2023-01-29T23:16:14.341Z,52.87
2023-01-29T23:19:18.171Z,52.77
2023-01-29T23:22:21.230Z,52.76
2023-01-29T23:25:44.268Z,52.79
2023-01-29T23:28:48.301Z,53.34
2023-01-29T23:31:51.370Z,53.39
2023-01-29T23:34:55.216Z,55.12
2023-01-29T23:37:58.917Z,54.82
2023-01-29T23:41:02.058Z,55.14
2023-01-29T23:44:05.665Z,54.55
2023-01-29T23:47:10.161Z,54.48
2023-01-29T23:50:13.646Z,54.33
2023-01-29T23:53:17.313Z,53.96
2023-01-29T23:56:20.431Z,52.92
2023-01-29T23:59:24.545Z,52.82
